sensor_id;sensor_type;location;lat;lon;timestamp;pressure;altitude;pressure_sealevel;temperature;humidity
34197;BME280;36594;45.192;5.722;2023-04-19T00:01:36;99311.39;;;23.97;34.60
34197;BME280;36594;45.192;5.722;2023-04-19T00:04:25;99307.58;;;23.98;34.61
34197;BME280;36594;45.192;5.722;2023-04-19T00:07:14;99307.00;;;23.96;34.66
34197;BME280;36594;45.192;5.722;2023-04-19T00:10:03;99305.91;;;23.97;34.66
34197;BME280;36594;45.192;5.722;2023-04-19T00:12:52;99310.28;;;23.95;34.68
34197;BME280;36594;45.192;5.722;2023-04-19T00:15:40;99307.28;;;23.97;34.67
34197;BME280;36594;45.192;5.722;2023-04-19T00:18:29;99307.58;;;23.98;34.64
34197;BME280;36594;45.192;5.722;2023-04-19T00:21:17;99307.28;;;23.97;34.68
34197;BME280;36594;45.192;5.722;2023-04-19T00:24:06;99309.74;;;23.96;34.69
34197;BME280;36594;45.192;5.722;2023-04-19T00:26:54;99305.63;;;23.96;34.69
34197;BME280;36594;45.192;5.722;2023-04-19T00:29:43;99300.89;;;23.91;34.72
34197;BME280;36594;45.192;5.722;2023-04-19T00:32:32;99305.33;;;23.95;34.73
34197;BME280;36594;45.192;5.722;2023-04-19T00:35:20;99310.02;;;23.97;34.72
34197;BME280;36594;45.192;5.722;2023-04-19T00:38:09;99308.11;;;23.97;34.72
34197;BME280;36594;45.192;5.722;2023-04-19T00:40:58;99308.91;;;23.95;34.74
34197;BME280;36594;45.192;5.722;2023-04-19T00:43:46;99303.95;;;23.95;34.75
34197;BME280;36594;45.192;5.722;2023-04-19T00:46:36;99307.80;;;23.94;34.75
34197;BME280;36594;45.192;5.722;2023-04-19T00:49:26;99306.16;;;23.95;34.76
34197;BME280;36594;45.192;5.722;2023-04-19T00:52:15;99302.05;;;23.95;34.79
34197;BME280;36594;45.192;5.722;2023-04-19T00:55:05;99307.84;;;23.96;34.77
34197;BME280;36594;45.192;5.722;2023-04-19T00:57:54;99307.23;;;23.94;34.79
34197;BME280;36594;45.192;5.722;2023-04-19T01:00:42;99303.95;;;23.95;34.77
34197;BME280;36594;45.192;5.722;2023-04-19T01:03:32;99302.58;;;23.95;34.78
34197;BME280;36594;45.192;5.722;2023-04-19T01:06:21;99296.25;;;23.94;34.81
34197;BME280;36594;45.192;5.722;2023-04-19T01:09:10;99303.11;;;23.94;34.79
34197;BME280;36594;45.192;5.722;2023-04-19T01:12:00;99291.91;;;23.96;34.79
34197;BME280;36594;45.192;5.722;2023-04-19T01:14:50;99289.96;;;23.94;34.83
34197;BME280;36594;45.192;5.722;2023-04-19T01:17:38;99288.86;;;23.95;34.85
34197;BME280;36594;45.192;5.722;2023-04-19T01:20:27;99294.61;;;23.93;34.86
34197;BME280;36594;45.192;5.722;2023-04-19T01:23:16;99297.61;;;23.92;34.89
34197;BME280;36594;45.192;5.722;2023-04-19T01:26:04;99302.05;;;23.95;35.14
34197;BME280;36594;45.192;5.722;2023-04-19T01:28:53;99302.05;;;23.95;35.14
34197;BME280;36594;45.192;5.722;2023-04-19T01:31:41;99300.63;;;23.93;34.93
34197;BME280;36594;45.192;5.722;2023-04-19T01:34:29;99296.77;;;23.91;34.91
34197;BME280;36594;45.192;5.722;2023-04-19T01:37:17;99293.50;;;23.92;34.97
34197;BME280;36594;45.192;5.722;2023-04-19T01:40:06;99291.02;;;23.93;34.97
34197;BME280;36594;45.192;5.722;2023-04-19T01:42:56;99289.91;;;23.91;34.98
34197;BME280;36594;45.192;5.722;2023-04-19T01:45:45;99290.49;;;23.93;34.97
34197;BME280;36594;45.192;5.722;2023-04-19T01:48:34;99283.38;;;23.95;35.00
34197;BME280;36594;45.192;5.722;2023-04-19T01:51:22;99277.05;;;23.94;34.98
34197;BME280;36594;45.192;5.722;2023-04-19T01:54:11;99285.84;;;23.94;34.96
34197;BME280;36594;45.192;5.722;2023-04-19T01:56:59;99287.22;;;23.94;35.03
34197;BME280;36594;45.192;5.722;2023-04-19T01:59:49;99285.84;;;23.94;35.04
34197;BME280;36594;45.192;5.722;2023-04-19T02:02:37;99286.08;;;23.92;35.04
34197;BME280;36594;45.192;5.722;2023-04-19T02:05:26;99286.91;;;23.93;35.07
34197;BME280;36594;45.192;5.722;2023-04-19T02:08:14;99284.17;;;23.93;35.08
34197;BME280;36594;45.192;5.722;2023-04-19T02:11:12;99280.84;;;23.91;35.11
34197;BME280;36594;45.192;5.722;2023-04-19T02:13:56;99289.96;;;23.94;35.10
34197;BME280;36594;45.192;5.722;2023-04-19T02:16:46;99292.66;;;23.91;35.12
34197;BME280;36594;45.192;5.722;2023-04-19T02:19:34;99290.75;;;23.92;35.13
34197;BME280;36594;45.192;5.722;2023-04-19T02:22:23;99294.56;;;23.91;35.17
34197;BME280;36594;45.192;5.722;2023-04-19T02:25:11;99297.56;;;23.89;35.22
34197;BME280;36594;45.192;5.722;2023-04-19T02:27:59;99300.35;;;23.92;35.20
34197;BME280;36594;45.192;5.722;2023-04-19T02:30:49;99295.41;;;23.91;35.20
34197;BME280;36594;45.192;5.722;2023-04-19T02:33:37;99293.19;;;23.91;35.25
34197;BME280;36594;45.192;5.722;2023-04-19T02:36:25;99291.02;;;23.93;35.22
34197;BME280;36594;45.192;5.722;2023-04-19T02:39:14;99292.88;;;23.90;35.27
34197;BME280;36594;45.192;5.722;2023-04-19T02:42:04;99287.17;;;23.91;35.27
34197;BME280;36594;45.192;5.722;2023-04-19T02:44:52;99290.14;;;23.90;35.23
34197;BME280;36594;45.192;5.722;2023-04-19T02:47:42;99286.91;;;23.93;35.26
34197;BME280;36594;45.192;5.722;2023-04-19T02:50:36;99288.23;;;23.90;35.27
34197;BME280;36594;45.192;5.722;2023-04-19T02:53:22;99297.30;;;23.91;35.25
34197;BME280;36594;45.192;5.722;2023-04-19T02:56:11;99300.35;;;23.92;35.26
34197;BME280;36594;45.192;5.722;2023-04-19T02:59:00;99294.87;;;23.92;35.26
34197;BME280;36594;45.192;5.722;2023-04-19T03:01:49;99300.89;;;23.91;35.25
34197;BME280;36594;45.192;5.722;2023-04-19T03:04:38;99297.30;;;23.91;35.26
34197;BME280;36594;45.192;5.722;2023-04-19T03:07:27;99298.42;;;23.92;35.25
34197;BME280;36594;45.192;5.722;2023-04-19T03:10:16;99293.72;;;23.90;35.27
34197;BME280;36594;45.192;5.722;2023-04-19T03:13:04;99288.23;;;23.90;35.25
34197;BME280;36594;45.192;5.722;2023-04-19T03:15:53;99295.36;;;23.89;35.30
34197;BME280;36594;45.192;5.722;2023-04-19T03:18:42;99296.73;;;23.89;35.31
34197;BME280;36594;45.192;5.722;2023-04-19T03:21:31;99296.47;;;23.90;35.29
34197;BME280;36594;45.192;5.722;2023-04-19T03:24:28;99293.67;;;23.88;35.28
34197;BME280;36594;45.192;5.722;2023-04-19T03:27:18;99301.95;;;23.90;35.30
34197;BME280;36594;45.192;5.722;2023-04-19T03:30:09;99300.53;;;23.88;35.31
34197;BME280;36594;45.192;5.722;2023-04-19T03:32:57;99303.28;;;23.88;35.33
34197;BME280;36594;45.192;5.722;2023-04-19T03:35:46;99301.12;;;23.90;35.28
34197;BME280;36594;45.192;5.722;2023-04-19T03:38:36;99296.42;;;23.88;35.31
34197;BME280;36594;45.192;5.722;2023-04-19T03:41:26;99297.52;;;23.87;35.30
34197;BME280;36594;45.192;5.722;2023-04-19T03:44:34;99299.16;;;23.88;35.30
34197;BME280;36594;45.192;5.722;2023-04-19T03:47:24;99302.70;;;23.86;35.30
34197;BME280;36594;45.192;5.722;2023-04-19T03:50:14;99299.95;;;23.86;35.31
34197;BME280;36594;45.192;5.722;2023-04-19T03:53:04;99303.00;;;23.87;35.31
34197;BME280;36594;45.192;5.722;2023-04-19T03:55:54;99301.05;;;23.85;35.33
34197;BME280;36594;45.192;5.722;2023-04-19T03:58:43;99296.94;;;23.85;35.30
34197;BME280;36594;45.192;5.722;2023-04-19T04:01:31;99303.80;;;23.85;35.30
34197;BME280;36594;45.192;5.722;2023-04-19T04:04:21;99301.86;;;23.85;35.29
34197;BME280;36594;45.192;5.722;2023-04-19T04:07:09;99304.07;;;23.86;35.28
34197;BME280;36594;45.192;5.722;2023-04-19T04:09:58;99298.31;;;23.85;35.29
34197;BME280;36594;45.192;5.722;2023-04-19T04:12:48;99299.68;;;23.85;35.27
34197;BME280;36594;45.192;5.722;2023-04-19T04:15:38;99302.42;;;23.85;35.26
34197;BME280;36594;45.192;5.722;2023-04-19T04:18:28;99301.05;;;23.85;35.28
34197;BME280;36594;45.192;5.722;2023-04-19T04:21:17;99301.05;;;23.85;35.26
34197;BME280;36594;45.192;5.722;2023-04-19T04:24:06;99302.95;;;23.84;35.28
34197;BME280;36594;45.192;5.722;2023-04-19T04:26:58;99304.86;;;23.84;35.28
34197;BME280;36594;45.192;5.722;2023-04-19T04:29:48;99311.41;;;23.83;35.29
34197;BME280;36594;45.192;5.722;2023-04-19T04:32:38;99307.07;;;23.84;35.28
34197;BME280;36594;45.192;5.722;2023-04-19T04:35:27;99313.34;;;23.82;35.28
34197;BME280;36594;45.192;5.722;2023-04-19T04:38:19;99317.47;;;23.82;35.33
34197;BME280;36594;45.192;5.722;2023-04-19T04:41:07;99320.48;;;23.83;35.28
34197;BME280;36594;45.192;5.722;2023-04-19T04:43:56;99321.06;;;23.85;35.29
34197;BME280;36594;45.192;5.722;2023-04-19T04:46:47;99321.02;;;23.83;35.30
34197;BME280;36594;45.192;5.722;2023-04-19T04:49:37;99320.73;;;23.82;35.32
34197;BME280;36594;45.192;5.722;2023-04-19T04:52:25;99327.29;;;23.81;35.32
34197;BME280;36594;45.192;5.722;2023-04-19T04:55:15;99325.69;;;23.82;35.33
34197;BME280;36594;45.192;5.722;2023-04-19T04:58:04;99326.50;;;23.83;35.30
34197;BME280;36594;45.192;5.722;2023-04-19T05:01:03;99330.61;;;23.83;35.29
34197;BME280;36594;45.192;5.722;2023-04-19T05:03:53;99326.22;;;23.82;35.29
34197;BME280;36594;45.192;5.722;2023-04-19T05:06:42;99330.34;;;23.82;35.30
34197;BME280;36594;45.192;5.722;2023-04-19T05:09:30;99332.77;;;23.81;35.36
34197;BME280;36594;45.192;5.722;2023-04-19T05:12:19;99334.14;;;23.81;35.36
34197;BME280;36594;45.192;5.722;2023-04-19T05:15:08;99341.31;;;23.82;35.40
34197;BME280;36594;45.192;5.722;2023-04-19T05:17:59;99331.41;;;23.81;35.40
34197;BME280;36594;45.192;5.722;2023-04-19T05:20:47;99336.36;;;23.81;35.38
34197;BME280;36594;45.192;5.722;2023-04-19T05:23:40;99335.83;;;23.82;35.32
34197;BME280;36594;45.192;5.722;2023-04-19T05:26:28;99339.41;;;23.82;35.34
34197;BME280;36594;45.192;5.722;2023-04-19T05:29:17;99344.05;;;23.82;35.28
34197;BME280;36594;45.192;5.722;2023-04-19T05:32:07;99343.52;;;23.82;35.32
34197;BME280;36594;45.192;5.722;2023-04-19T05:35:00;99338.57;;;23.82;35.26
34197;BME280;36594;45.192;5.722;2023-04-19T05:37:49;99342.68;;;23.82;35.26
34197;BME280;36594;45.192;5.722;2023-04-19T05:40:38;99346.27;;;23.82;35.25
34197;BME280;36594;45.192;5.722;2023-04-19T05:43:26;99341.59;;;23.83;35.24
34197;BME280;36594;45.192;5.722;2023-04-19T05:46:14;99343.27;;;23.84;35.19
34197;BME280;36594;45.192;5.722;2023-04-19T05:49:03;99346.27;;;23.82;35.09
34197;BME280;36594;45.192;5.722;2023-04-19T05:52:05;99345.91;;;23.79;35.05
34197;BME280;36594;45.192;5.722;2023-04-19T05:54:58;99341.42;;;23.73;33.69
34197;BME280;36594;45.192;5.722;2023-04-19T05:57:48;99339.69;;;23.69;33.12
34197;BME280;36594;45.192;5.722;2023-04-19T06:00:37;99334.99;;;23.67;33.40
34197;BME280;36594;45.192;5.722;2023-04-19T06:03:28;99337.20;;;23.68;33.71
34197;BME280;36594;45.192;5.722;2023-04-19T06:06:16;99334.73;;;23.69;34.01
34197;BME280;36594;45.192;5.722;2023-04-19T06:09:05;99337.78;;;23.70;34.08
34197;BME280;36594;45.192;5.722;2023-04-19T06:11:53;99333.42;;;23.71;34.16
34197;BME280;36594;45.192;5.722;2023-04-19T06:14:43;99337.00;;;23.72;34.38
34197;BME280;36594;45.192;5.722;2023-04-19T06:17:32;99327.76;;;23.75;34.40
34197;BME280;36594;45.192;5.722;2023-04-19T06:20:20;99340.42;;;23.79;34.34
34197;BME280;36594;45.192;5.722;2023-04-19T06:23:09;99346.44;;;23.78;34.37
34197;BME280;36594;45.192;5.722;2023-04-19T06:25:59;99338.77;;;23.78;34.43
34197;BME280;36594;45.192;5.722;2023-04-19T06:28:47;99341.00;;;23.81;34.62
34197;BME280;36594;45.192;5.722;2023-04-19T06:31:36;99333.56;;;23.79;34.63
34197;BME280;36594;45.192;5.722;2023-04-19T06:34:24;99336.79;;;23.76;34.85
34197;BME280;36594;45.192;5.722;2023-04-19T06:37:13;99340.38;;;23.76;35.18
34197;BME280;36594;45.192;5.722;2023-04-19T06:40:01;99335.20;;;23.77;35.30
34197;BME280;36594;45.192;5.722;2023-04-19T06:42:52;99336.61;;;23.80;35.43
34197;BME280;36594;45.192;5.722;2023-04-19T06:45:40;99337.09;;;23.77;35.66
34197;BME280;36594;45.192;5.722;2023-04-19T06:48:29;99332.50;;;23.80;35.71
34197;BME280;36594;45.192;5.722;2023-04-19T06:51:17;99333.56;;;23.79;35.91
34197;BME280;36594;45.192;5.722;2023-04-19T06:54:06;99333.56;;;23.79;36.05
34197;BME280;36594;45.192;5.722;2023-04-19T06:56:56;99325.13;;;23.83;36.22
34197;BME280;36594;45.192;5.722;2023-04-19T06:59:44;99325.92;;;23.81;36.28
34197;BME280;36594;45.192;5.722;2023-04-19T07:02:32;99325.92;;;23.81;36.25
34197;BME280;36594;45.192;5.722;2023-04-19T07:05:21;99322.11;;;23.82;36.28
34197;BME280;36594;45.192;5.722;2023-04-19T07:08:09;99320.16;;;23.80;36.35
34197;BME280;36594;45.192;5.722;2023-04-19T07:10:57;99326.22;;;23.82;36.31
34197;BME280;36594;45.192;5.722;2023-04-19T07:13:45;99320.20;;;23.82;36.32
34197;BME280;36594;45.192;5.722;2023-04-19T07:16:33;99321.00;;;23.80;36.26
34197;BME280;36594;45.192;5.722;2023-04-19T07:19:22;99320.16;;;23.80;36.36
34197;BME280;36594;45.192;5.722;2023-04-19T07:22:10;99317.47;;;23.82;36.30
34197;BME280;36594;45.192;5.722;2023-04-19T07:24:58;99315.73;;;23.79;36.30
34197;BME280;36594;45.192;5.722;2023-04-19T07:27:47;99314.09;;;23.78;36.31
34197;BME280;36594;45.192;5.722;2023-04-19T07:30:36;99316.83;;;23.78;36.33
34197;BME280;36594;45.192;5.722;2023-04-19T07:33:24;99311.93;;;23.80;36.37
34197;BME280;36594;45.192;5.722;2023-04-19T07:36:13;99311.34;;;23.78;36.31
34197;BME280;36594;45.192;5.722;2023-04-19T07:39:02;99308.88;;;23.79;36.30
34197;BME280;36594;45.192;5.722;2023-04-19T07:41:51;99310.78;;;23.78;36.27
34197;BME280;36594;45.192;5.722;2023-04-19T07:44:39;99305.07;;;23.80;36.30
34197;BME280;36594;45.192;5.722;2023-04-19T07:47:27;99294.53;;;23.74;36.25
34197;BME280;36594;45.192;5.722;2023-04-19T07:50:17;99299.33;;;23.81;36.26
34197;BME280;36594;45.192;5.722;2023-04-19T07:53:05;99296.31;;;23.80;36.28
34197;BME280;36594;45.192;5.722;2023-04-19T07:55:54;99304.54;;;23.80;36.17
34197;BME280;36594;45.192;5.722;2023-04-19T07:58:42;99302.07;;;23.81;36.21
34197;BME280;36594;45.192;5.722;2023-04-19T08:01:30;99296.89;;;23.82;36.14
34197;BME280;36594;45.192;5.722;2023-04-19T08:04:19;99296.89;;;23.82;36.12
34197;BME280;36594;45.192;5.722;2023-04-19T08:07:09;99296.63;;;23.84;36.09
34197;BME280;36594;45.192;5.722;2023-04-19T08:09:58;99288.66;;;23.82;36.10
34197;BME280;36594;45.192;5.722;2023-04-19T08:12:46;99288.89;;;23.81;36.04
34197;BME280;36594;45.192;5.722;2023-04-19T08:15:35;99283.08;;;23.77;36.04
34197;BME280;36594;45.192;5.722;2023-04-19T08:18:24;99281.80;;;23.82;36.05
34197;BME280;36594;45.192;5.722;2023-04-19T08:21:13;99276.55;;;23.81;36.02
34197;BME280;36594;45.192;5.722;2023-04-19T08:24:01;99270.27;;;23.83;35.98
34197;BME280;36594;45.192;5.722;2023-04-19T08:26:50;99269.73;;;23.83;35.96
34197;BME280;36594;45.192;5.722;2023-04-19T08:29:40;99270.83;;;23.82;35.92
34197;BME280;36594;45.192;5.722;2023-04-19T08:32:29;99266.16;;;23.83;35.90
34197;BME280;36594;45.192;5.722;2023-04-19T08:35:17;99265.39;;;23.85;35.87
34197;BME280;36594;45.192;5.722;2023-04-19T08:38:07;99259.86;;;23.82;35.88
34197;BME280;36594;45.192;5.722;2023-04-19T08:40:55;99256.28;;;23.82;35.88
34197;BME280;36594;45.192;5.722;2023-04-19T08:43:44;99253.53;;;23.82;35.86
34197;BME280;36594;45.192;5.722;2023-04-19T08:46:34;99249.68;;;23.80;35.88
34197;BME280;36594;45.192;5.722;2023-04-19T08:49:23;99249.95;;;23.81;35.80
34197;BME280;36594;45.192;5.722;2023-04-19T08:52:13;99246.94;;;23.80;35.81
34197;BME280;36594;45.192;5.722;2023-04-19T08:55:06;99244.42;;;23.79;35.83
34197;BME280;36594;45.192;5.722;2023-04-19T08:57:56;99243.89;;;23.79;35.81
34197;BME280;36594;45.192;5.722;2023-04-19T09:00:44;99238.41;;;23.79;35.79
34197;BME280;36594;45.192;5.722;2023-04-19T09:03:34;99240.61;;;23.80;35.83
34197;BME280;36594;45.192;5.722;2023-04-19T09:06:22;99232.61;;;23.78;35.79
34197;BME280;36594;45.192;5.722;2023-04-19T09:09:25;99234.29;;;23.79;35.78
34197;BME280;36594;45.192;5.722;2023-04-19T09:12:17;99231.02;;;23.80;35.78
34197;BME280;36594;45.192;5.722;2023-04-19T09:15:07;99226.90;;;23.80;35.75
34197;BME280;36594;45.192;5.722;2023-04-19T09:18:07;99221.95;;;23.79;35.79
34197;BME280;36594;45.192;5.722;2023-04-19T09:20:56;99221.41;;;23.80;35.71
34197;BME280;36594;45.192;5.722;2023-04-19T09:23:46;99220.53;;;23.77;35.74
34197;BME280;36594;45.192;5.722;2023-04-19T09:26:35;99210.40;;;23.77;35.72
34197;BME280;36594;45.192;5.722;2023-04-19T09:29:24;99202.70;;;23.77;35.72
34197;BME280;36594;45.192;5.722;2023-04-19T09:32:13;99204.12;;;23.79;35.72
34197;BME280;36594;45.192;5.722;2023-04-19T09:35:02;99195.84;;;23.77;35.68
34197;BME280;36594;45.192;5.722;2023-04-19T09:37:58;99194.52;;;23.79;35.68
34197;BME280;36594;45.192;5.722;2023-04-19T09:40:47;99185.22;;;23.80;35.63
34197;BME280;36594;45.192;5.722;2023-04-19T09:43:36;99187.13;;;23.80;35.60
34197;BME280;36594;45.192;5.722;2023-04-19T09:46:32;99173.95;;;23.79;35.59
34197;BME280;36594;45.192;5.722;2023-04-19T09:49:22;99170.67;;;23.80;35.59
34197;BME280;36594;45.192;5.722;2023-04-19T09:52:13;99172.04;;;23.80;35.58
34197;BME280;36594;45.192;5.722;2023-04-19T09:55:04;99168.46;;;23.79;35.58
34197;BME280;36594;45.192;5.722;2023-04-19T09:57:53;99157.80;;;23.80;35.55
34197;BME280;36594;45.192;5.722;2023-04-19T10:00:44;99156.16;;;23.82;35.52
34197;BME280;36594;45.192;5.722;2023-04-19T10:03:34;99148.77;;;23.82;35.48
34197;BME280;36594;45.192;5.722;2023-04-19T10:06:23;99145.72;;;23.81;35.47
34197;BME280;36594;45.192;5.722;2023-04-19T10:09:13;99138.86;;;23.81;35.48
34197;BME280;36594;45.192;5.722;2023-04-19T10:12:02;99143.28;;;23.82;35.46
34197;BME280;36594;45.192;5.722;2023-04-19T10:14:55;99139.41;;;23.81;35.42
34197;BME280;36594;45.192;5.722;2023-04-19T10:17:46;99137.80;;;23.82;35.41
34197;BME280;36594;45.192;5.722;2023-04-19T10:20:54;99134.22;;;23.82;35.40
34197;BME280;36594;45.192;5.722;2023-04-19T10:23:41;99124.87;;;23.80;35.41
34197;BME280;36594;45.192;5.722;2023-04-19T10:26:30;99119.63;;;23.79;35.43
34197;BME280;36594;45.192;5.722;2023-04-19T10:32:42;99115.02;;;23.82;35.40
34197;BME280;36594;45.192;5.722;2023-04-19T10:35:35;99105.88;;;23.76;35.40
34197;BME280;36594;45.192;5.722;2023-04-19T10:38:50;99099.05;;;23.79;35.40
34197;BME280;36594;45.192;5.722;2023-04-19T10:41:56;99105.42;;;23.82;35.36
34197;BME280;36594;45.192;5.722;2023-04-19T10:44:41;99099.89;;;23.79;35.39
34197;BME280;36594;45.192;5.722;2023-04-19T10:47:43;99097.98;;;23.80;35.39
34197;BME280;36594;45.192;5.722;2023-04-19T10:53:51;99092.50;;;23.80;35.34
34197;BME280;36594;45.192;5.722;2023-04-19T11:02:59;99075.74;;;23.79;35.34
34197;BME280;36594;45.192;5.722;2023-04-19T11:06:33;99069.45;;;23.81;35.30
34197;BME280;36594;45.192;5.722;2023-04-19T11:08:44;99059.05;;;23.80;35.27
34197;BME280;36594;45.192;5.722;2023-04-19T11:11:34;99058.79;;;23.82;35.25
34197;BME280;36594;45.192;5.722;2023-04-19T11:14:24;99053.56;;;23.80;35.29
34197;BME280;36594;45.192;5.722;2023-04-19T11:17:18;99045.91;;;23.82;35.25
34197;BME280;36594;45.192;5.722;2023-04-19T11:20:09;99033.34;;;23.86;35.20
34197;BME280;36594;45.192;5.722;2023-04-19T11:22:57;99024.00;;;23.85;35.18
34197;BME280;36594;45.192;5.722;2023-04-19T11:25:50;99021.30;;;23.87;35.16
34197;BME280;36594;45.192;5.722;2023-04-19T11:28:39;99015.25;;;23.88;35.14
34197;BME280;36594;45.192;5.722;2023-04-19T11:31:30;99016.05;;;23.86;35.15
34197;BME280;36594;45.192;5.722;2023-04-19T11:34:25;99002.91;;;23.88;35.10
34197;BME280;36594;45.192;5.722;2023-04-19T11:37:09;99006.52;;;23.91;35.05
34197;BME280;36594;45.192;5.722;2023-04-19T11:39:58;99002.41;;;23.91;35.05
34197;BME280;36594;45.192;5.722;2023-04-19T11:42:52;98997.22;;;23.92;35.04
34197;BME280;36594;45.192;5.722;2023-04-19T11:45:37;98993.67;;;23.94;35.01
34197;BME280;36594;45.192;5.722;2023-04-19T11:48:26;98978.02;;;23.92;35.01
34197;BME280;36594;45.192;5.722;2023-04-19T11:51:15;98979.92;;;23.91;35.01
34197;BME280;36594;45.192;5.722;2023-04-19T11:54:11;98973.30;;;23.90;35.04
34197;BME280;36594;45.192;5.722;2023-04-19T11:57:05;98967.05;;;23.92;35.01
34197;BME280;36594;45.192;5.722;2023-04-19T12:00:08;98961.55;;;23.92;35.01
34197;BME280;36594;45.192;5.722;2023-04-19T12:03:01;98949.45;;;23.90;35.03
34197;BME280;36594;45.192;5.722;2023-04-19T12:05:53;98942.86;;;23.89;35.04
34197;BME280;36594;45.192;5.722;2023-04-19T12:08:44;98935.19;;;23.91;35.05
34197;BME280;36594;45.192;5.722;2023-04-19T12:11:45;98930.01;;;23.92;34.99
34197;BME280;36594;45.192;5.722;2023-04-19T12:14:35;98924.25;;;23.93;34.83
34197;BME280;36594;45.192;5.722;2023-04-19T12:17:23;98919.27;;;23.90;34.82
34197;BME280;36594;45.192;5.722;2023-04-19T12:20:12;98919.30;;;23.93;34.76
34197;BME280;36594;45.192;5.722;2023-04-19T12:23:02;98910.53;;;23.93;34.79
34197;BME280;36594;45.192;5.722;2023-04-19T12:25:51;98907.52;;;23.95;34.80
34197;BME280;36594;45.192;5.722;2023-04-19T12:28:40;98913.28;;;23.93;34.85
34197;BME280;36594;45.192;5.722;2023-04-19T12:31:30;98905.32;;;23.94;34.82
34197;BME280;36594;45.192;5.722;2023-04-19T12:34:21;98897.92;;;23.95;34.78
34197;BME280;36594;45.192;5.722;2023-04-19T12:37:09;98889.99;;;23.96;34.81
34197;BME280;36594;45.192;5.722;2023-04-19T12:39:58;98894.11;;;23.96;34.78
34197;BME280;36594;45.192;5.722;2023-04-19T12:42:46;98891.91;;;23.95;34.76
34197;BME280;36594;45.192;5.722;2023-04-19T12:45:34;98885.05;;;23.95;34.74
34197;BME280;36594;45.192;5.722;2023-04-19T12:48:23;98881.77;;;23.96;34.76
34197;BME280;36594;45.192;5.722;2023-04-19T12:51:11;98885.64;;;24.00;34.70
34197;BME280;36594;45.192;5.722;2023-04-19T12:54:00;98868.08;;;23.98;34.75
34197;BME280;36594;45.192;5.722;2023-04-19T12:56:49;98862.29;;;23.97;34.70
34197;BME280;36594;45.192;5.722;2023-04-19T12:59:37;98872.43;;;23.97;34.68
34197;BME280;36594;45.192;5.722;2023-04-19T13:02:25;98861.75;;;23.98;34.62
34197;BME280;36594;45.192;5.722;2023-04-19T13:05:14;98860.68;;;23.99;34.62
34197;BME280;36594;45.192;5.722;2023-04-19T13:08:03;98845.86;;;24.00;34.61
34197;BME280;36594;45.192;5.722;2023-04-19T13:10:52;98845.05;;;24.02;34.58
34197;BME280;36594;45.192;5.722;2023-04-19T13:13:40;98833.25;;;23.99;34.56
34197;BME280;36594;45.192;5.722;2023-04-19T13:16:28;98824.18;;;23.98;34.60
34197;BME280;36594;45.192;5.722;2023-04-19T13:19:17;98820.09;;;24.01;34.55
34197;BME280;36594;45.192;5.722;2023-04-19T13:22:05;98819.80;;;24.00;34.51
34197;BME280;36594;45.192;5.722;2023-04-19T13:24:54;98811.30;;;24.01;34.47
34197;BME280;36594;45.192;5.722;2023-04-19T13:27:42;98809.12;;;24.01;34.46
34197;BME280;36594;45.192;5.722;2023-04-19T13:30:32;98800.05;;;24.00;34.47
34197;BME280;36594;45.192;5.722;2023-04-19T13:33:21;98800.31;;;24.01;34.45
34197;BME280;36594;45.192;5.722;2023-04-19T13:36:09;98790.16;;;23.99;34.43
34197;BME280;36594;45.192;5.722;2023-04-19T13:38:58;98775.58;;;23.94;34.42
34197;BME280;36594;45.192;5.722;2023-04-19T13:41:46;98791.55;;;24.02;34.36
34197;BME280;36594;45.192;5.722;2023-04-19T13:44:34;98786.36;;;24.03;34.37
34197;BME280;36594;45.192;5.722;2023-04-19T13:47:23;98786.06;;;24.02;34.40
34197;BME280;36594;45.192;5.722;2023-04-19T13:50:12;98779.20;;;24.02;34.39
34197;BME280;36594;45.192;5.722;2023-04-19T13:53:01;98777.83;;;24.02;34.39
34197;BME280;36594;45.192;5.722;2023-04-19T13:55:50;98766.03;;;23.99;34.43
34197;BME280;36594;45.192;5.722;2023-04-19T13:58:38;98767.13;;;24.00;34.45
34197;BME280;36594;45.192;5.722;2023-04-19T14:01:26;98767.69;;;24.02;34.42
34197;BME280;36594;45.192;5.722;2023-04-19T14:04:15;98753.98;;;24.02;34.37
34197;BME280;36594;45.192;5.722;2023-04-19T14:07:04;98756.99;;;24.01;34.42
34197;BME280;36594;45.192;5.722;2023-04-19T14:09:53;98764.39;;;24.00;34.45
34197;BME280;36594;45.192;5.722;2023-04-19T14:12:42;98749.00;;;23.99;34.43
34197;BME280;36594;45.192;5.722;2023-04-19T14:15:31;98746.83;;;23.99;34.44
34197;BME280;36594;45.192;5.722;2023-04-19T14:18:20;98740.51;;;23.98;34.46
34197;BME280;36594;45.192;5.722;2023-04-19T14:21:09;98734.48;;;23.99;34.44
34197;BME280;36594;45.192;5.722;2023-04-19T14:23:58;98735.28;;;23.99;34.44
34197;BME280;36594;45.192;5.722;2023-04-19T14:26:46;98729.26;;;24.00;34.44
34197;BME280;36594;45.192;5.722;2023-04-19T14:29:35;98722.13;;;24.01;34.43
34197;BME280;36594;45.192;5.722;2023-04-19T14:32:24;98733.94;;;24.02;34.39
34197;BME280;36594;45.192;5.722;2023-04-19T14:35:12;98713.90;;;24.01;34.40
34197;BME280;36594;45.192;5.722;2023-04-19T14:38:00;98727.08;;;24.02;34.41
34197;BME280;36594;45.192;5.722;2023-04-19T14:40:49;98716.11;;;24.02;34.39
34197;BME280;36594;45.192;5.722;2023-04-19T14:43:38;98711.75;;;24.03;34.34
34197;BME280;36594;45.192;5.722;2023-04-19T14:46:26;98715.86;;;24.03;34.32
34197;BME280;36594;45.192;5.722;2023-04-19T14:49:14;98701.58;;;24.04;34.32
34197;BME280;36594;45.192;5.722;2023-04-19T14:52:03;98704.94;;;24.06;34.26
34197;BME280;36594;45.192;5.722;2023-04-19T14:54:51;98700.83;;;24.06;34.25
34197;BME280;36594;45.192;5.722;2023-04-19T14:57:39;98704.61;;;24.05;34.35
34197;BME280;36594;45.192;5.722;2023-04-19T15:00:28;98704.13;;;24.08;34.21
34197;BME280;36594;45.192;5.722;2023-04-19T15:03:16;98694.53;;;24.08;34.26
34197;BME280;36594;45.192;5.722;2023-04-19T15:06:05;98697.00;;;24.10;34.20
34197;BME280;36594;45.192;5.722;2023-04-19T15:08:53;98692.88;;;24.10;34.11
34197;BME280;36594;45.192;5.722;2023-04-19T15:11:42;98684.67;;;24.12;33.97